ROMD(METAR)
02/20 16:00
ROMD 200700Z 05006KT 9999 FEW015 FEW033 BKNXXX 23/21 Q1020 RMK
A3013=
戻る
トップページへ戻る
IMOC Co,.Ltd.